Terminal Aerodrome Forecast
Issued by NWS

Home | Current Version | Previous Version | Text Only | Print | Product List | Glossary On
Versions: 1 2 3 4 5 6 7 8 9 10 11 12 13 14 15 16 17
000
FTUS44 KLIX 191120
TAFGPT
TAF
KGPT 191120Z 1912/2012 00000KT 1/4SM FG VV002
     FM191400 10005KT 3SM BR SCT010
     FM191500 10005KT P6SM SCT060
     FM200600 12006KT 3SM BR SCT015
      TEMPO 2008/2012 1/2SM FG VV002=

USA.gov is the U.S. government's official web portal to all federal, state and local government web resources and services.